createdAt,value
2023-05-24T00:00:48.279Z,101597.41
2023-05-24T00:03:16.338Z,101600.09
2023-05-24T00:05:43.497Z,101599.19
2023-05-24T00:08:10.336Z,101605.38
2023-05-24T00:10:37.169Z,101603.59
2023-05-24T00:13:04.022Z,101607.13
2023-05-24T00:15:30.901Z,101608.91
2023-05-24T00:17:57.763Z,101602.69
2023-05-24T00:20:24.743Z,101612.44
2023-05-24T00:22:51.751Z,101607.09
2023-05-24T00:25:18.604Z,101610.63
2023-05-24T00:27:45.488Z,101607.91
2023-05-24T00:30:12.750Z,101602.59
2023-05-24T00:32:39.752Z,101604.34
2023-05-24T00:35:06.973Z,101599.91
2023-05-24T00:37:33.780Z,101600.81
2023-05-24T00:40:00.612Z,101592.78
2023-05-24T00:42:27.492Z,101596.38
2023-05-24T00:44:54.305Z,101602.56
2023-05-24T00:47:21.260Z,101590.13
2023-05-24T00:49:48.135Z,101594.56
2023-05-24T00:52:15.572Z,101592.78
2023-05-24T00:54:42.474Z,101586.59
2023-05-24T00:57:09.439Z,101590.13
2023-05-24T00:59:36.609Z,101588.38
2023-05-24T01:02:03.764Z,101592.78
2023-05-24T01:04:33.106Z,101588.34
2023-05-24T01:07:37.918Z,101588.34
2023-05-24T01:10:30.784Z,101587.47
2023-05-24T01:13:23.535Z,101583.03
2023-05-24T01:16:17.823Z,101583.03
2023-05-24T01:18:50.621Z,101582.13
2023-05-24T01:21:34.580Z,101591.00
2023-05-24T01:24:30.664Z,101580.34
2023-05-24T01:27:12.422Z,101573.28
2023-05-24T01:29:39.687Z,101576.81
2023-05-24T01:32:07.397Z,101577.72
2023-05-24T01:34:34.202Z,101574.19
2023-05-24T01:37:01.021Z,101578.59
2023-05-24T01:39:29.934Z,101577.72
2023-05-24T01:42:33.639Z,101575.94
2023-05-24T01:45:20.047Z,101571.50
2023-05-24T01:48:19.561Z,101563.50
2023-05-24T01:50:53.344Z,101562.63
2023-05-24T01:53:21.524Z,101562.63
2023-05-24T01:55:55.824Z,101559.06
2023-05-24T01:58:23.652Z,101554.63
2023-05-24T02:00:51.930Z,101547.53
2023-05-24T02:03:19.648Z,101558.16
2023-05-24T02:05:46.736Z,101547.53
2023-05-24T02:08:13.822Z,101559.03
2023-05-24T02:10:41.368Z,101551.97
2023-05-24T02:13:09.190Z,101543.09
2023-05-24T02:15:36.395Z,101540.44
2023-05-24T02:18:03.994Z,101545.78
2023-05-24T02:20:31.490Z,101544.88
2023-05-24T02:22:58.571Z,101544.88
2023-05-24T02:25:25.581Z,101533.34
2023-05-24T02:27:52.484Z,101539.53
2023-05-24T02:30:19.571Z,101544.88
2023-05-24T02:32:46.757Z,101536.00
2023-05-24T02:35:13.858Z,101520.94
2023-05-24T02:37:40.987Z,101523.63
2023-05-24T02:40:08.537Z,101520.94
2023-05-24T02:42:35.564Z,101528.94
2023-05-24T02:45:02.857Z,101536.03
2023-05-24T02:47:29.858Z,101528.94
2023-05-24T02:49:56.725Z,101526.25
2023-05-24T02:52:23.615Z,101530.69
2023-05-24T02:54:50.817Z,101533.34
2023-05-24T02:57:18.221Z,101536.00
2023-05-24T02:59:45.061Z,101530.66
2023-05-24T03:02:13.741Z,101532.44
2023-05-24T03:04:40.788Z,101535.97
2023-05-24T03:07:07.589Z,101528.00
2023-05-24T03:09:34.435Z,101532.41
2023-05-24T03:12:01.715Z,101532.41
2023-05-24T03:14:28.517Z,101531.53
2023-05-24T03:16:55.377Z,101535.06
2023-05-24T03:19:22.673Z,101529.75
2023-05-24T03:21:49.523Z,101531.50
2023-05-24T03:24:16.355Z,101533.25
2023-05-24T03:26:43.180Z,101531.47
2023-05-24T03:29:10.054Z,101524.38
2023-05-24T03:31:36.936Z,101524.38
2023-05-24T03:34:03.861Z,101523.50
2023-05-24T03:36:30.889Z,101525.28
2023-05-24T03:38:58.996Z,101527.94
2023-05-24T03:41:27.524Z,101527.06
2023-05-24T03:43:54.361Z,101526.16
2023-05-24T03:46:21.258Z,101523.53
2023-05-24T03:48:49.585Z,101535.91
2023-05-24T03:51:16.673Z,101531.47
2023-05-24T03:53:43.681Z,101542.09
2023-05-24T03:56:10.533Z,101535.00
2023-05-24T03:58:37.504Z,101543.00
2023-05-24T04:01:04.440Z,101537.66
2023-05-24T04:03:34.198Z,101534.16
2023-05-24T04:06:01.436Z,101540.38
2023-05-24T04:08:28.352Z,101536.84
2023-05-24T04:10:55.618Z,101543.00
2023-05-24T04:13:22.529Z,101545.69
2023-05-24T04:15:49.492Z,101555.47
2023-05-24T04:18:16.496Z,101550.13
2023-05-24T04:20:43.560Z,101550.16
2023-05-24T04:23:10.614Z,101551.91
2023-05-24T04:25:37.457Z,101553.66
2023-05-24T04:28:04.271Z,101556.34
2023-05-24T04:30:31.360Z,101550.16
2023-05-24T04:32:58.783Z,101551.94
2023-05-24T04:35:25.778Z,101553.72
2023-05-24T04:37:52.832Z,101553.75
2023-05-24T04:40:22.936Z,101551.97
2023-05-24T04:42:50.529Z,101552.88
2023-05-24T04:45:17.368Z,101553.78
2023-05-24T04:47:44.891Z,101544.03
2023-05-24T04:50:11.778Z,101554.66
2023-05-24T04:52:38.775Z,101545.81
2023-05-24T04:55:06.185Z,101542.28
2023-05-24T04:57:33.086Z,101550.25
2023-05-24T05:00:00.064Z,101538.75
2023-05-24T05:02:27.219Z,101546.75
2023-05-24T05:04:54.203Z,101544.06
2023-05-24T05:07:21.528Z,101540.53
2023-05-24T05:09:48.488Z,101531.66
2023-05-24T05:12:18.185Z,101535.28
2023-05-24T05:14:45.000Z,101535.31
2023-05-24T05:17:11.829Z,101534.41
2023-05-24T05:19:38.714Z,101543.28
2023-05-24T05:22:05.605Z,101545.06
2023-05-24T05:24:32.464Z,101553.06
2023-05-24T05:26:59.306Z,101556.63
2023-05-24T05:29:26.125Z,101561.03
2023-05-24T05:31:53.025Z,101561.94
2023-05-24T05:34:21.160Z,101561.06
2023-05-24T05:36:48.033Z,101566.38
2023-05-24T05:39:14.968Z,101564.63
2023-05-24T05:41:45.754Z,101567.28
2023-05-24T05:44:13.396Z,101567.28
2023-05-24T05:46:41.514Z,101571.69
2023-05-24T05:49:09.205Z,101569.97
2023-05-24T05:51:37.813Z,101572.63
2023-05-24T05:54:05.913Z,101571.72
2023-05-24T05:56:32.861Z,101576.19
2023-05-24T05:58:59.724Z,101574.41
2023-05-24T06:01:26.675Z,101567.31
2023-05-24T06:03:53.613Z,101561.97
2023-05-24T06:06:20.502Z,101574.41
2023-05-24T06:08:47.313Z,101572.66
2023-05-24T06:11:14.221Z,101567.34
2023-05-24T06:13:44.219Z,101564.66
2023-05-24T06:16:11.246Z,101569.09
2023-05-24T06:18:38.557Z,101566.44
2023-05-24T06:21:05.545Z,101568.19
2023-05-24T06:23:32.792Z,101559.34
2023-05-24T06:26:01.456Z,101564.66
2023-05-24T06:28:28.398Z,101561.09
2023-05-24T06:30:55.451Z,101563.78
2023-05-24T06:33:23.353Z,101577.09
2023-05-24T06:35:50.217Z,101581.50
2023-05-24T06:38:17.819Z,101580.66
2023-05-24T06:40:44.829Z,101586.88
2023-05-24T06:43:14.073Z,101587.75
2023-05-24T06:45:41.568Z,101588.66
2023-05-24T06:48:08.969Z,101595.75
2023-05-24T06:50:39.105Z,101597.53
2023-05-24T06:53:07.145Z,101598.41
2023-05-24T06:55:34.055Z,101595.75
2023-05-24T06:58:00.876Z,101586.88
2023-05-24T07:00:27.813Z,101593.97
2023-05-24T07:02:54.818Z,101600.16
2023-05-24T07:05:22.213Z,101599.28
2023-05-24T07:07:49.136Z,101600.16
2023-05-24T07:10:15.944Z,101603.72
2023-05-24T07:12:42.752Z,101600.16
2023-05-24T07:15:10.130Z,101609.03
2023-05-24T07:17:37.310Z,101610.81
2023-05-24T07:20:09.499Z,101609.94
2023-05-24T07:22:36.797Z,101615.28
2023-05-24T07:25:04.572Z,101620.59
2023-05-24T07:27:31.462Z,101625.91
2023-05-24T07:29:58.706Z,101625.91
2023-05-24T07:32:25.613Z,101639.25
2023-05-24T07:34:52.549Z,101628.56
2023-05-24T07:37:19.391Z,101628.56
2023-05-24T07:39:46.275Z,101633.03
2023-05-24T07:42:13.111Z,101632.09
2023-05-24T07:44:40.531Z,101632.09
2023-05-24T07:47:07.550Z,101639.22
2023-05-24T07:49:34.400Z,101634.78
2023-05-24T07:52:01.270Z,101635.66
2023-05-24T07:54:28.180Z,101650.78
2023-05-24T07:56:55.223Z,101643.69
2023-05-24T07:59:22.893Z,101642.78
2023-05-24T08:01:50.500Z,101643.66
2023-05-24T08:04:17.308Z,101653.44
2023-05-24T08:06:46.495Z,101649.88
2023-05-24T08:09:13.405Z,101650.75
2023-05-24T08:11:43.060Z,101654.31
2023-05-24T08:14:12.900Z,101650.72
2023-05-24T08:16:39.864Z,101648.97
2023-05-24T08:19:06.864Z,101655.19
2023-05-24T08:21:33.885Z,101651.66
2023-05-24T08:24:04.401Z,101654.34
2023-05-24T08:26:32.263Z,101649.88
2023-05-24T08:28:59.412Z,101645.44
2023-05-24T08:31:26.364Z,101657.88
2023-05-24T08:33:54.919Z,101650.78
2023-05-24T08:36:22.195Z,101656.09
2023-05-24T08:38:52.031Z,101656.09
2023-05-24T08:41:18.900Z,101657.91
2023-05-24T08:43:47.722Z,101665.03
2023-05-24T08:46:17.794Z,101662.34
2023-05-24T08:48:48.400Z,101680.13
2023-05-24T08:51:16.117Z,101673.03
2023-05-24T08:53:48.408Z,101675.69
2023-05-24T08:56:18.304Z,101675.69
2023-05-24T08:58:48.038Z,101672.13
2023-05-24T09:01:17.289Z,101667.69
2023-05-24T09:03:46.804Z,101677.47
2023-05-24T09:06:18.284Z,101672.13
2023-05-24T09:08:46.180Z,101673.91
2023-05-24T09:11:16.027Z,101680.13
2023-05-24T09:13:45.393Z,101681.00
2023-05-24T09:16:12.507Z,101677.44
2023-05-24T09:18:41.688Z,101679.22
2023-05-24T09:21:10.781Z,101681.00
2023-05-24T09:23:38.167Z,101684.53
2023-05-24T09:26:11.345Z,101687.22
2023-05-24T09:28:38.852Z,101688.06
2023-05-24T09:31:07.888Z,101688.94
2023-05-24T09:33:35.990Z,101691.63
2023-05-24T09:36:07.722Z,101682.69
2023-05-24T09:38:36.326Z,101683.59
2023-05-24T09:41:06.593Z,101675.53
2023-05-24T09:43:36.102Z,101678.19
2023-05-24T09:46:06.287Z,101681.72
2023-05-24T09:48:33.092Z,101682.63
2023-05-24T09:51:09.656Z,101679.94
2023-05-24T09:53:37.180Z,101680.84
2023-05-24T09:56:05.449Z,101681.69
2023-05-24T09:58:33.446Z,101680.78
2023-05-24T10:01:08.907Z,101687.88
2023-05-24T10:03:37.437Z,101686.09
2023-05-24T10:06:07.588Z,101688.78
2023-05-24T10:08:36.342Z,101690.56
2023-05-24T10:11:06.240Z,101688.75
2023-05-24T10:13:36.515Z,101687.84
2023-05-24T10:16:03.941Z,101683.44
2023-05-24T10:18:31.304Z,101687.88
2023-05-24T10:20:59.446Z,101701.25
2023-05-24T10:23:31.023Z,101699.47
2023-05-24T10:26:12.695Z,101703.03
2023-05-24T10:28:44.942Z,101702.13
2023-05-24T10:31:18.552Z,101695.88
2023-05-24T10:33:48.598Z,101701.25
2023-05-24T10:36:16.309Z,101707.47
2023-05-24T10:38:43.616Z,101701.28
2023-05-24T10:41:13.358Z,101708.41
2023-05-24T10:43:40.543Z,101705.75
2023-05-24T10:46:10.122Z,101703.97
2023-05-24T10:48:41.640Z,101701.28
2023-05-24T10:51:38.650Z,101700.41
2023-05-24T10:54:18.081Z,101700.38
2023-05-24T10:56:48.436Z,101702.19
2023-05-24T10:59:39.087Z,101704.84
2023-05-24T11:02:16.365Z,101703.94
2023-05-24T11:04:46.906Z,101702.16
2023-05-24T11:07:15.774Z,101699.47
2023-05-24T11:09:46.506Z,101707.47
2023-05-24T11:12:18.969Z,101698.56
2023-05-24T11:14:52.055Z,101699.44
2023-05-24T11:17:23.838Z,101702.97
2023-05-24T11:19:53.076Z,101703.84
2023-05-24T11:22:25.456Z,101705.63
2023-05-24T11:24:53.328Z,101705.63
2023-05-24T11:27:24.453Z,101706.50
2023-05-24T11:29:52.599Z,101713.56
2023-05-24T11:32:21.324Z,101700.19
2023-05-24T11:34:48.946Z,101701.94
2023-05-24T11:37:18.072Z,101703.66
2023-05-24T11:39:52.097Z,101700.06
2023-05-24T11:42:19.549Z,101700.97
2023-05-24T11:44:49.839Z,101702.72
2023-05-24T11:47:16.698Z,101708.94
2023-05-24T11:49:43.514Z,101705.34
2023-05-24T11:52:10.378Z,101708.03
2023-05-24T11:54:38.753Z,101704.50
2023-05-24T11:57:06.379Z,101709.84
2023-05-24T11:59:35.689Z,101711.63
2023-05-24T12:02:05.857Z,101705.38
2023-05-24T12:04:36.556Z,101708.06
2023-05-24T12:07:03.622Z,101703.56
2023-05-24T12:09:30.567Z,101698.19
2023-05-24T12:12:00.116Z,101699.94
2023-05-24T12:14:35.700Z,101701.66
2023-05-24T12:17:02.722Z,101698.97
2023-05-24T12:19:37.284Z,101690.81
2023-05-24T12:22:06.238Z,101697.84
2023-05-24T12:24:34.017Z,101698.59
2023-05-24T12:27:03.491Z,101701.13
2023-05-24T12:29:36.310Z,101694.75
2023-05-24T12:32:05.243Z,101700.84
2023-05-24T12:34:32.807Z,101695.44
2023-05-24T12:37:00.288Z,101689.13
2023-05-24T12:39:35.157Z,101688.19
2023-05-24T12:42:03.913Z,101698.91
2023-05-24T12:44:39.265Z,101690.91
2023-05-24T12:47:08.087Z,101686.44
2023-05-24T12:49:35.726Z,101686.47
2023-05-24T12:52:02.823Z,101686.47
2023-05-24T12:54:30.292Z,101686.44
2023-05-24T12:57:00.005Z,101685.50
2023-05-24T12:59:28.473Z,101681.00
2023-05-24T13:01:55.776Z,101672.91
2023-05-24T13:04:26.045Z,101672.84
2023-05-24T13:06:52.954Z,101683.50
2023-05-24T13:09:22.355Z,101676.28
2023-05-24T13:11:49.369Z,101684.28
2023-05-24T13:14:16.871Z,101677.97
2023-05-24T13:16:44.391Z,101681.47
2023-05-24T13:19:12.333Z,101678.72
2023-05-24T13:21:39.579Z,101677.78
2023-05-24T13:24:07.527Z,101678.72
2023-05-24T13:26:38.170Z,101685.03
2023-05-24T13:31:39.237Z,101671.44
2023-05-24T13:34:07.348Z,101674.88
2023-05-24T13:36:35.117Z,101675.63
2023-05-24T13:39:14.850Z,101675.50
2023-05-24T13:41:49.251Z,101684.38
2023-05-24T13:44:16.773Z,101678.09
2023-05-24T13:46:44.504Z,101672.63
2023-05-24T13:49:12.014Z,101680.59
2023-05-24T13:51:40.081Z,101675.19
2023-05-24T13:54:07.421Z,101675.19
2023-05-24T13:56:35.209Z,101668.91
2023-05-24T13:59:03.662Z,101676.06
2023-05-24T14:01:31.269Z,101669.91
2023-05-24T14:03:58.736Z,101676.22
2023-05-24T14:06:25.686Z,101679.81
2023-05-24T14:08:52.601Z,101666.44
2023-05-24T14:11:19.713Z,101674.53
2023-05-24T14:16:19.180Z,101674.69
2023-05-24T14:18:48.912Z,101676.63
2023-05-24T14:21:16.254Z,101680.25
2023-05-24T14:23:43.111Z,101682.16
2023-05-24T14:26:10.027Z,101684.03
2023-05-24T14:28:36.872Z,101677.84
2023-05-24T14:31:03.798Z,101684.22
2023-05-24T14:33:30.668Z,101690.56
2023-05-24T14:35:57.576Z,101688.00
2023-05-24T14:38:25.348Z,101692.53
2023-05-24T14:40:52.221Z,101691.75
2023-05-24T14:43:19.079Z,101693.53
2023-05-24T14:45:46.150Z,101686.34
2023-05-24T14:48:15.967Z,101685.41
2023-05-24T14:50:43.238Z,101692.47
2023-05-24T14:53:12.186Z,101694.19
2023-05-24T14:55:42.038Z,101683.41
2023-05-24T14:58:11.335Z,101691.34
2023-05-24T15:00:39.353Z,101687.69
2023-05-24T15:03:07.913Z,101683.13
2023-05-24T15:05:36.183Z,101686.66
2023-05-24T15:08:03.219Z,101683.00
2023-05-24T15:10:30.167Z,101684.66
2023-05-24T15:12:57.009Z,101679.25
2023-05-24T15:15:23.917Z,101690.78
2023-05-24T15:17:50.898Z,101696.06
2023-05-24T15:20:19.387Z,101698.69
2023-05-24T15:22:46.629Z,101689.72
2023-05-24T15:25:13.538Z,101694.19
2023-05-24T15:27:40.359Z,101690.53
2023-05-24T15:30:07.864Z,101692.25
2023-05-24T15:32:34.874Z,101685.03
2023-05-24T15:35:01.990Z,101687.59
2023-05-24T15:37:28.858Z,101684.78
2023-05-24T15:39:55.734Z,101693.63
2023-05-24T15:42:24.480Z,101696.19
2023-05-24T15:44:51.620Z,101689.84
2023-05-24T15:47:21.172Z,101695.03
2023-05-24T15:49:49.658Z,101690.50
2023-05-24T15:52:16.730Z,101691.47
2023-05-24T15:54:43.608Z,101692.31
2023-05-24T15:57:10.805Z,101696.75
2023-05-24T15:59:38.614Z,101683.28
2023-05-24T16:02:07.792Z,101694.91
2023-05-24T16:04:34.834Z,101690.50
2023-05-24T16:07:01.810Z,101684.34
2023-05-24T16:09:28.724Z,101689.78
2023-05-24T16:11:55.609Z,101690.72
2023-05-24T16:14:22.459Z,101687.19
2023-05-24T16:16:49.324Z,101683.59
2023-05-24T16:19:16.492Z,101682.69
2023-05-24T16:21:43.367Z,101691.59
2023-05-24T16:24:12.816Z,101692.50
2023-05-24T16:26:39.652Z,101692.53
2023-05-24T16:29:07.050Z,101687.25
2023-05-24T16:31:34.067Z,101695.38
2023-05-24T16:34:01.173Z,101684.78
2023-05-24T16:36:28.058Z,101681.22
2023-05-24T16:38:54.948Z,101683.09
2023-05-24T16:41:21.923Z,101685.00
2023-05-24T16:43:49.287Z,101693.97
2023-05-24T16:46:16.247Z,101692.25
2023-05-24T16:48:43.126Z,101689.69
2023-05-24T16:51:09.996Z,101683.47
2023-05-24T16:53:36.851Z,101686.16
2023-05-24T16:56:06.602Z,101692.41
2023-05-24T16:58:33.449Z,101688.03
2023-05-24T17:01:00.708Z,101690.75
2023-05-24T17:03:28.751Z,101686.28
2023-05-24T17:06:01.929Z,101694.28
2023-05-24T17:08:33.076Z,101698.81
2023-05-24T17:10:59.914Z,101695.25
2023-05-24T17:13:30.021Z,101696.13
2023-05-24T17:15:57.881Z,101693.44
2023-05-24T17:18:28.923Z,101701.47
2023-05-24T17:21:04.333Z,101703.22
2023-05-24T17:23:33.800Z,101699.69
2023-05-24T17:26:02.437Z,101698.81
2023-05-24T17:28:29.880Z,101692.56
2023-05-24T17:30:59.146Z,101705.97
2023-05-24T17:33:28.551Z,101698.88
2023-05-24T17:35:59.447Z,101697.16
2023-05-24T17:38:26.301Z,101699.00
2023-05-24T17:40:56.912Z,101698.19
2023-05-24T17:43:25.014Z,101710.69
2023-05-24T17:45:51.923Z,101713.41
2023-05-24T17:48:18.806Z,101714.31
2023-05-24T17:50:45.777Z,101711.66
2023-05-24T17:53:29.962Z,101717.03
2023-05-24T17:55:57.546Z,101717.97
2023-05-24T17:58:24.397Z,101724.25
2023-05-24T18:00:51.293Z,101725.22
2023-05-24T18:03:18.179Z,101725.22
2023-05-24T18:05:45.291Z,101728.84
2023-05-24T18:08:12.194Z,101731.56
2023-05-24T18:10:39.049Z,101726.22
2023-05-24T18:13:09.430Z,101719.97
2023-05-24T18:15:36.584Z,101729.78
2023-05-24T18:18:03.744Z,101728.91
2023-05-24T18:20:30.758Z,101723.53
2023-05-24T18:22:57.712Z,101727.13
2023-05-24T18:25:24.577Z,101733.38
2023-05-24T18:27:51.590Z,101735.16
2023-05-24T18:30:18.499Z,101729.84
2023-05-24T18:32:56.299Z,101729.81
2023-05-24T18:35:31.997Z,101729.84
2023-05-24T18:38:01.585Z,101736.09
2023-05-24T18:40:28.408Z,101728.97
2023-05-24T18:42:55.208Z,101735.22
2023-05-24T18:45:22.743Z,101734.38
2023-05-24T18:47:49.606Z,101731.69
2023-05-24T18:50:16.980Z,101738.91
2023-05-24T18:52:43.852Z,101738.00
2023-05-24T18:55:10.836Z,101740.72
2023-05-24T18:57:38.414Z,101743.41
2023-05-24T19:00:09.355Z,101744.31
2023-05-24T19:02:38.657Z,101748.78
2023-05-24T19:05:07.210Z,101742.56
2023-05-24T19:07:35.350Z,101748.81
2023-05-24T19:10:02.795Z,101754.16
2023-05-24T19:12:30.405Z,101749.72
2023-05-24T19:14:57.336Z,101758.69
2023-05-24T19:17:24.973Z,101761.38
2023-05-24T19:19:52.374Z,101763.16
2023-05-24T19:22:19.497Z,101764.94
2023-05-24T19:24:46.791Z,101767.63
2023-05-24T19:27:13.694Z,101772.13
2023-05-24T19:29:40.671Z,101775.69
2023-05-24T19:32:08.310Z,101775.69
2023-05-24T19:34:37.404Z,101777.47
2023-05-24T19:37:04.492Z,101781.94
2023-05-24T19:39:31.375Z,101779.28
2023-05-24T19:41:58.193Z,101794.44
2023-05-24T19:44:25.022Z,101789.09
2023-05-24T19:46:51.850Z,101785.53
2023-05-24T19:49:18.683Z,101795.34
2023-05-24T19:51:45.643Z,101787.34
2023-05-24T19:54:12.881Z,101789.16
2023-05-24T19:56:39.756Z,101794.53
2023-05-24T19:59:07.336Z,101797.22
2023-05-24T20:01:34.414Z,101802.59
2023-05-24T20:04:01.527Z,101801.75
2023-05-24T20:06:29.444Z,101797.34
2023-05-24T20:08:58.715Z,101799.16
2023-05-24T20:11:26.547Z,101811.69
2023-05-24T20:13:53.429Z,101806.34
2023-05-24T20:16:20.481Z,101809.03
2023-05-24T20:18:47.321Z,101817.13
2023-05-24T20:21:17.746Z,101829.59
2023-05-24T20:23:44.771Z,101818.94
2023-05-24T20:26:11.698Z,101822.53
2023-05-24T20:28:38.627Z,101826.13
2023-05-24T20:31:06.458Z,101822.56
2023-05-24T20:33:37.743Z,101819.94
2023-05-24T20:36:05.372Z,101820.84
2023-05-24T20:38:32.169Z,101823.56
2023-05-24T20:40:59.664Z,101822.66
2023-05-24T20:43:26.562Z,101828.94
2023-05-24T20:45:53.809Z,101831.63
2023-05-24T20:48:21.089Z,101827.22
2023-05-24T20:50:48.056Z,101843.28
2023-05-24T20:53:14.900Z,101840.59
2023-05-24T20:55:41.854Z,101835.28
2023-05-24T20:58:08.769Z,101837.06
2023-05-24T21:00:37.632Z,101838.88
2023-05-24T21:03:06.236Z,101846.88
2023-05-24T21:05:36.301Z,101844.25
2023-05-24T21:08:03.894Z,101851.38
2023-05-24T21:10:30.755Z,101856.72
2023-05-24T21:12:57.752Z,101850.53
2023-05-24T21:15:24.897Z,101853.19
2023-05-24T21:17:51.751Z,101852.31
2023-05-24T21:20:18.655Z,101860.34
2023-05-24T21:22:46.127Z,101871.06
2023-05-24T21:25:13.118Z,101871.03
2023-05-24T21:27:39.947Z,101874.63
2023-05-24T21:30:07.877Z,101876.41
2023-05-24T21:32:34.733Z,101888.00
2023-05-24T21:35:01.690Z,101890.69
2023-05-24T21:37:28.553Z,101888.03
2023-05-24T21:39:55.543Z,101888.91
2023-05-24T21:42:22.395Z,101893.41
2023-05-24T21:44:49.265Z,101898.75
2023-05-24T21:47:16.178Z,101893.41
2023-05-24T21:49:43.102Z,101896.06
2023-05-24T21:52:09.948Z,101899.66
2023-05-24T21:54:36.796Z,101901.41
2023-05-24T21:57:03.739Z,101900.53
2023-05-24T21:59:30.584Z,101910.34
2023-05-24T22:01:57.497Z,101917.47
2023-05-24T22:04:24.452Z,101918.34
2023-05-24T22:06:51.285Z,101919.25
2023-05-24T22:09:18.104Z,101921.06
2023-05-24T22:11:44.932Z,101930.81
2023-05-24T22:14:11.782Z,101933.50
2023-05-24T22:16:38.641Z,101937.97
2023-05-24T22:19:14.852Z,101942.41
2023-05-24T22:21:43.707Z,101941.50
2023-05-24T22:24:10.752Z,101944.16
2023-05-24T22:26:38.113Z,101949.47
2023-05-24T22:29:05.002Z,101951.28
2023-05-24T22:31:36.070Z,101945.91
2023-05-24T22:34:02.986Z,101951.25
2023-05-24T22:36:33.737Z,101942.34
2023-05-24T22:39:05.152Z,101942.38
2023-05-24T22:41:32.136Z,101932.59
2023-05-24T22:43:59.600Z,101941.47
2023-05-24T22:46:26.588Z,101934.34
2023-05-24T22:48:53.487Z,101941.47
2023-05-24T22:51:20.629Z,101941.47
2023-05-24T22:53:48.322Z,101948.56
2023-05-24T22:56:15.408Z,101946.78
2023-05-24T22:58:42.255Z,101945.00
2023-05-24T23:01:09.128Z,101951.19
2023-05-24T23:03:36.164Z,101944.06
2023-05-24T23:06:04.617Z,101939.66
2023-05-24T23:08:32.464Z,101941.41
2023-05-24T23:11:00.228Z,101940.53
2023-05-24T23:13:33.716Z,101948.53
2023-05-24T23:16:00.847Z,101950.28
2023-05-24T23:18:28.147Z,101949.38
2023-05-24T23:20:56.055Z,101953.81
2023-05-24T23:23:24.597Z,101952.94
2023-05-24T23:25:51.621Z,101954.69
2023-05-24T23:28:18.971Z,101949.38
2023-05-24T23:30:49.017Z,101945.81
2023-05-24T23:33:15.874Z,101944.91
2023-05-24T23:35:42.912Z,101956.47
2023-05-24T23:38:09.878Z,101952.91
2023-05-24T23:40:36.753Z,101946.69
2023-05-24T23:43:04.339Z,101940.47
2023-05-24T23:45:31.313Z,101952.91
2023-05-24T23:47:58.744Z,101956.47
2023-05-24T23:50:27.419Z,101951.13
2023-05-24T23:52:54.944Z,101946.66
2023-05-24T23:55:23.217Z,101940.44
2023-05-24T23:57:50.417Z,101950.19
